sensor_id;sensor_type;location;lat;lon;timestamp;temperature;humidity
52643;DHT22;38531;53.296;6.614;2023-11-21T00:01:54;9.90;99.90
52643;DHT22;38531;53.296;6.614;2023-11-21T00:04:19;9.90;99.90
52643;DHT22;38531;53.296;6.614;2023-11-21T00:06:45;10.00;99.90
52643;DHT22;38531;53.296;6.614;2023-11-21T00:09:15;9.20;99.90
52643;DHT22;38531;53.296;6.614;2023-11-21T00:11:41;9.30;99.90
52643;DHT22;38531;53.296;6.614;2023-11-21T00:14:07;9.60;99.90
52643;DHT22;38531;53.296;6.614;2023-11-21T00:16:33;9.30;99.90
52643;DHT22;38531;53.296;6.614;2023-11-21T00:18:59;9.80;99.90
52643;DHT22;38531;53.296;6.614;2023-11-21T00:21:24;10.00;99.90
52643;DHT22;38531;53.296;6.614;2023-11-21T00:23:50;9.60;99.90
52643;DHT22;38531;53.296;6.614;2023-11-21T00:26:15;9.30;99.90
52643;DHT22;38531;53.296;6.614;2023-11-21T00:28:41;9.30;99.90
52643;DHT22;38531;53.296;6.614;2023-11-21T00:31:07;10.10;99.90
52643;DHT22;38531;53.296;6.614;2023-11-21T00:33:32;9.30;99.90
52643;DHT22;38531;53.296;6.614;2023-11-21T00:35:58;9.30;99.90
52643;DHT22;38531;53.296;6.614;2023-11-21T00:38:23;9.40;99.90
52643;DHT22;38531;53.296;6.614;2023-11-21T00:40:49;10.20;99.90
52643;DHT22;38531;53.296;6.614;2023-11-21T00:43:15;9.40;99.90
52643;DHT22;38531;53.296;6.614;2023-11-21T00:45:40;9.40;99.90
52643;DHT22;38531;53.296;6.614;2023-11-21T00:48:06;9.40;99.90
52643;DHT22;38531;53.296;6.614;2023-11-21T00:50:33;9.40;99.90
52643;DHT22;38531;53.296;6.614;2023-11-21T00:52:59;10.00;99.90
52643;DHT22;38531;53.296;6.614;2023-11-21T00:55:24;9.40;99.90
52643;DHT22;38531;53.296;6.614;2023-11-21T00:57:50;9.60;99.90
52643;DHT22;38531;53.296;6.614;2023-11-21T01:00:16;9.40;99.90
52643;DHT22;38531;53.296;6.614;2023-11-21T01:02:45;9.40;99.90
52643;DHT22;38531;53.296;6.614;2023-11-21T01:05:12;10.00;99.90
52643;DHT22;38531;53.296;6.614;2023-11-21T01:07:37;10.00;99.90
52643;DHT22;38531;53.296;6.614;2023-11-21T01:10:03;9.50;99.90
52643;DHT22;38531;53.296;6.614;2023-11-21T01:12:34;9.50;99.90
52643;DHT22;38531;53.296;6.614;2023-11-21T01:14:59;9.50;99.90
52643;DHT22;38531;53.296;6.614;2023-11-21T01:17:26;9.50;99.90
52643;DHT22;38531;53.296;6.614;2023-11-21T01:19:51;9.50;99.90
52643;DHT22;38531;53.296;6.614;2023-11-21T01:22:17;9.90;99.90
52643;DHT22;38531;53.296;6.614;2023-11-21T01:24:47;9.50;99.90
52643;DHT22;38531;53.296;6.614;2023-11-21T01:27:13;9.50;99.90
52643;DHT22;38531;53.296;6.614;2023-11-21T01:29:38;10.10;99.90
52643;DHT22;38531;53.296;6.614;2023-11-21T01:32:04;9.80;99.90
52643;DHT22;38531;53.296;6.614;2023-11-21T01:34:29;9.50;99.90
52643;DHT22;38531;53.296;6.614;2023-11-21T01:36:56;9.50;99.90
52643;DHT22;38531;53.296;6.614;2023-11-21T01:39:21;10.00;99.90
52643;DHT22;38531;53.296;6.614;2023-11-21T01:41:51;9.60;99.90
52643;DHT22;38531;53.296;6.614;2023-11-21T01:44:17;9.80;99.90
52643;DHT22;38531;53.296;6.614;2023-11-21T01:46:45;9.90;99.90
52643;DHT22;38531;53.296;6.614;2023-11-21T01:49:10;9.50;99.90
52643;DHT22;38531;53.296;6.614;2023-11-21T01:51:41;9.90;99.90
52643;DHT22;38531;53.296;6.614;2023-11-21T01:54:08;9.50;99.90
52643;DHT22;38531;53.296;6.614;2023-11-21T01:56:34;9.70;99.90
52643;DHT22;38531;53.296;6.614;2023-11-21T01:59:00;9.50;99.90
52643;DHT22;38531;53.296;6.614;2023-11-21T02:01:25;10.10;99.90
52643;DHT22;38531;53.296;6.614;2023-11-21T02:03:51;9.40;99.90
52643;DHT22;38531;53.296;6.614;2023-11-21T02:06:17;9.60;99.90
52643;DHT22;38531;53.296;6.614;2023-11-21T02:08:43;9.40;99.90
52643;DHT22;38531;53.296;6.614;2023-11-21T02:11:10;10.00;99.90
52643;DHT22;38531;53.296;6.614;2023-11-21T02:13:38;9.40;99.90
52643;DHT22;38531;53.296;6.614;2023-11-21T02:16:04;9.40;99.90
52643;DHT22;38531;53.296;6.614;2023-11-21T02:18:30;9.40;99.90
52643;DHT22;38531;53.296;6.614;2023-11-21T02:20:56;9.40;99.90
52643;DHT22;38531;53.296;6.614;2023-11-21T02:23:21;10.00;99.90
52643;DHT22;38531;53.296;6.614;2023-11-21T02:25:48;9.60;99.90
52643;DHT22;38531;53.296;6.614;2023-11-21T02:28:14;10.00;99.90
52643;DHT22;38531;53.296;6.614;2023-11-21T02:30:41;9.40;99.90
52643;DHT22;38531;53.296;6.614;2023-11-21T02:33:07;9.40;99.90
52643;DHT22;38531;53.296;6.614;2023-11-21T02:35:33;9.40;99.90
52643;DHT22;38531;53.296;6.614;2023-11-21T02:38:00;9.50;99.90
52643;DHT22;38531;53.296;6.614;2023-11-21T02:40:25;10.10;99.90
52643;DHT22;38531;53.296;6.614;2023-11-21T02:42:51;9.40;99.90
52643;DHT22;38531;53.296;6.614;2023-11-21T02:45:18;10.10;99.90
52643;DHT22;38531;53.296;6.614;2023-11-21T02:47:44;9.80;99.90
52643;DHT22;38531;53.296;6.614;2023-11-21T02:50:10;9.70;99.90
52643;DHT22;38531;53.296;6.614;2023-11-21T02:52:36;9.60;99.90
52643;DHT22;38531;53.296;6.614;2023-11-21T02:55:02;9.40;99.90
52643;DHT22;38531;53.296;6.614;2023-11-21T02:57:27;9.60;99.90
52643;DHT22;38531;53.296;6.614;2023-11-21T02:59:53;9.40;99.90
52643;DHT22;38531;53.296;6.614;2023-11-21T03:02:20;9.90;99.90
52643;DHT22;38531;53.296;6.614;2023-11-21T03:04:45;9.40;99.90
52643;DHT22;38531;53.296;6.614;2023-11-21T03:07:11;9.50;99.90
52643;DHT22;38531;53.296;6.614;2023-11-21T03:09:36;9.40;99.90
52643;DHT22;38531;53.296;6.614;2023-11-21T03:12:02;9.50;99.90
52643;DHT22;38531;53.296;6.614;2023-11-21T03:14:27;9.40;99.90
52643;DHT22;38531;53.296;6.614;2023-11-21T03:16:53;9.30;99.90
52643;DHT22;38531;53.296;6.614;2023-11-21T03:19:19;9.40;99.90
52643;DHT22;38531;53.296;6.614;2023-11-21T03:21:44;9.30;99.90
52643;DHT22;38531;53.296;6.614;2023-11-21T03:24:10;9.40;99.90
52643;DHT22;38531;53.296;6.614;2023-11-21T03:26:35;9.30;99.90
52643;DHT22;38531;53.296;6.614;2023-11-21T03:29:02;9.40;99.90
52643;DHT22;38531;53.296;6.614;2023-11-21T03:31:28;9.20;99.90
52643;DHT22;38531;53.296;6.614;2023-11-21T03:33:53;9.60;99.90
52643;DHT22;38531;53.296;6.614;2023-11-21T03:36:19;9.20;99.90
52643;DHT22;38531;53.296;6.614;2023-11-21T03:38:45;9.20;99.90
52643;DHT22;38531;53.296;6.614;2023-11-21T03:41:10;9.30;99.90
52643;DHT22;38531;53.296;6.614;2023-11-21T03:43:36;9.20;99.90
52643;DHT22;38531;53.296;6.614;2023-11-21T03:46:02;9.10;99.90
52643;DHT22;38531;53.296;6.614;2023-11-21T03:48:28;9.10;99.90
52643;DHT22;38531;53.296;6.614;2023-11-21T03:50:53;9.20;99.90
52643;DHT22;38531;53.296;6.614;2023-11-21T03:53:19;9.10;99.90
52643;DHT22;38531;53.296;6.614;2023-11-21T03:55:44;9.10;99.90
52643;DHT22;38531;53.296;6.614;2023-11-21T03:58:10;9.00;99.90
52643;DHT22;38531;53.296;6.614;2023-11-21T04:00:35;9.40;99.90
52643;DHT22;38531;53.296;6.614;2023-11-21T04:03:01;9.80;99.90
52643;DHT22;38531;53.296;6.614;2023-11-21T04:05:27;9.60;99.90
52643;DHT22;38531;53.296;6.614;2023-11-21T04:07:52;9.70;99.90
52643;DHT22;38531;53.296;6.614;2023-11-21T04:10:18;9.00;99.90
52643;DHT22;38531;53.296;6.614;2023-11-21T04:12:44;9.00;99.90
52643;DHT22;38531;53.296;6.614;2023-11-21T04:15:10;9.10;99.90
52643;DHT22;38531;53.296;6.614;2023-11-21T04:17:36;9.40;99.90
52643;DHT22;38531;53.296;6.614;2023-11-21T04:20:02;9.10;99.90
52643;DHT22;38531;53.296;6.614;2023-11-21T04:22:28;9.10;99.90
52643;DHT22;38531;53.296;6.614;2023-11-21T04:24:54;9.30;99.90
52643;DHT22;38531;53.296;6.614;2023-11-21T04:27:21;9.10;99.90
52643;DHT22;38531;53.296;6.614;2023-11-21T04:29:47;9.30;99.90
52643;DHT22;38531;53.296;6.614;2023-11-21T04:32:12;9.10;99.90
52643;DHT22;38531;53.296;6.614;2023-11-21T04:34:38;9.50;99.90
52643;DHT22;38531;53.296;6.614;2023-11-21T04:37:04;9.80;99.90
52643;DHT22;38531;53.296;6.614;2023-11-21T04:39:31;9.50;99.90
52643;DHT22;38531;53.296;6.614;2023-11-21T04:41:57;9.90;99.90
52643;DHT22;38531;53.296;6.614;2023-11-21T04:44:22;9.20;99.90
52643;DHT22;38531;53.296;6.614;2023-11-21T04:46:48;9.30;99.90
52643;DHT22;38531;53.296;6.614;2023-11-21T04:49:14;9.10;99.90
52643;DHT22;38531;53.296;6.614;2023-11-21T04:51:39;9.20;99.90
52643;DHT22;38531;53.296;6.614;2023-11-21T04:54:05;9.10;99.90
52643;DHT22;38531;53.296;6.614;2023-11-21T04:56:31;9.10;99.90
52643;DHT22;38531;53.296;6.614;2023-11-21T04:58:56;9.40;99.90
52643;DHT22;38531;53.296;6.614;2023-11-21T05:01:22;9.80;99.90
52643;DHT22;38531;53.296;6.614;2023-11-21T05:03:48;9.80;99.90
52643;DHT22;38531;53.296;6.614;2023-11-21T05:06:14;9.80;99.90
52643;DHT22;38531;53.296;6.614;2023-11-21T05:08:40;9.10;99.90
52643;DHT22;38531;53.296;6.614;2023-11-21T05:11:05;9.30;99.90
52643;DHT22;38531;53.296;6.614;2023-11-21T05:13:35;9.20;99.90
52643;DHT22;38531;53.296;6.614;2023-11-21T05:16:01;9.20;99.90
52643;DHT22;38531;53.296;6.614;2023-11-21T05:18:29;9.20;99.90
52643;DHT22;38531;53.296;6.614;2023-11-21T05:20:55;9.20;99.90
52643;DHT22;38531;53.296;6.614;2023-11-21T05:23:21;9.70;99.90
52643;DHT22;38531;53.296;6.614;2023-11-21T05:25:46;9.30;99.90
52643;DHT22;38531;53.296;6.614;2023-11-21T05:28:12;9.60;99.90
52643;DHT22;38531;53.296;6.614;2023-11-21T05:30:38;9.60;99.90
52643;DHT22;38531;53.296;6.614;2023-11-21T05:33:06;9.40;99.90
52643;DHT22;38531;53.296;6.614;2023-11-21T05:35:32;9.20;99.90
52643;DHT22;38531;53.296;6.614;2023-11-21T05:37:57;9.20;99.90
52643;DHT22;38531;53.296;6.614;2023-11-21T05:40:23;9.50;99.90
52643;DHT22;38531;53.296;6.614;2023-11-21T05:42:49;9.80;99.90
52643;DHT22;38531;53.296;6.614;2023-11-21T05:45:14;9.20;99.90
52643;DHT22;38531;53.296;6.614;2023-11-21T05:47:41;9.10;99.90
52643;DHT22;38531;53.296;6.614;2023-11-21T05:50:08;9.50;99.90
52643;DHT22;38531;53.296;6.614;2023-11-21T05:52:38;9.00;99.90
52643;DHT22;38531;53.296;6.614;2023-11-21T05:55:04;9.40;99.90
52643;DHT22;38531;53.296;6.614;2023-11-21T05:57:33;9.00;99.90
52643;DHT22;38531;53.296;6.614;2023-11-21T05:59:59;9.00;99.90
52643;DHT22;38531;53.296;6.614;2023-11-21T06:02:24;9.40;99.90
52643;DHT22;38531;53.296;6.614;2023-11-21T06:04:51;9.00;99.90
52643;DHT22;38531;53.296;6.614;2023-11-21T06:07:16;9.20;99.90
52643;DHT22;38531;53.296;6.614;2023-11-21T06:09:42;9.40;99.90
52643;DHT22;38531;53.296;6.614;2023-11-21T06:12:10;9.60;99.90
52643;DHT22;38531;53.296;6.614;2023-11-21T06:14:35;9.20;99.90
52643;DHT22;38531;53.296;6.614;2023-11-21T06:17:01;8.90;99.90
52643;DHT22;38531;53.296;6.614;2023-11-21T06:19:27;8.90;99.90
52643;DHT22;38531;53.296;6.614;2023-11-21T06:21:52;9.00;99.90
52643;DHT22;38531;53.296;6.614;2023-11-21T06:24:18;8.90;99.90
52643;DHT22;38531;53.296;6.614;2023-11-21T06:26:46;9.20;99.90
52643;DHT22;38531;53.296;6.614;2023-11-21T06:29:13;9.00;99.90
52643;DHT22;38531;53.296;6.614;2023-11-21T06:31:39;8.80;99.90
52643;DHT22;38531;53.296;6.614;2023-11-21T06:34:06;8.70;99.90
52643;DHT22;38531;53.296;6.614;2023-11-21T06:36:31;9.40;99.90
52643;DHT22;38531;53.296;6.614;2023-11-21T06:38:57;8.70;99.90
52643;DHT22;38531;53.296;6.614;2023-11-21T06:41:22;8.70;99.90
52643;DHT22;38531;53.296;6.614;2023-11-21T06:43:48;8.70;99.90
52643;DHT22;38531;53.296;6.614;2023-11-21T06:46:14;9.30;99.90
52643;DHT22;38531;53.296;6.614;2023-11-21T06:48:43;8.60;99.90
52643;DHT22;38531;53.296;6.614;2023-11-21T06:51:09;8.60;99.90
52643;DHT22;38531;53.296;6.614;2023-11-21T06:53:35;8.80;99.90
52643;DHT22;38531;53.296;6.614;2023-11-21T06:56:01;8.60;99.90
52643;DHT22;38531;53.296;6.614;2023-11-21T06:58:26;8.70;99.90
52643;DHT22;38531;53.296;6.614;2023-11-21T07:00:52;8.60;99.90
52643;DHT22;38531;53.296;6.614;2023-11-21T07:03:19;8.60;99.90
52643;DHT22;38531;53.296;6.614;2023-11-21T07:05:45;8.80;99.90
52643;DHT22;38531;53.296;6.614;2023-11-21T07:08:11;8.50;99.90
52643;DHT22;38531;53.296;6.614;2023-11-21T07:10:37;9.10;99.90
52643;DHT22;38531;53.296;6.614;2023-11-21T07:13:03;8.90;99.90
52643;DHT22;38531;53.296;6.614;2023-11-21T07:15:29;8.50;99.90
52643;DHT22;38531;53.296;6.614;2023-11-21T07:17:54;9.10;99.90
52643;DHT22;38531;53.296;6.614;2023-11-21T07:20:20;8.50;99.90
52643;DHT22;38531;53.296;6.614;2023-11-21T07:22:46;8.70;99.90
52643;DHT22;38531;53.296;6.614;2023-11-21T07:25:12;8.80;99.90
52643;DHT22;38531;53.296;6.614;2023-11-21T07:27:37;8.50;99.90
52643;DHT22;38531;53.296;6.614;2023-11-21T07:30:03;8.40;99.90
52643;DHT22;38531;53.296;6.614;2023-11-21T07:32:31;8.40;99.90
52643;DHT22;38531;53.296;6.614;2023-11-21T07:34:57;8.40;99.90
52643;DHT22;38531;53.296;6.614;2023-11-21T07:37:24;9.10;99.90
52643;DHT22;38531;53.296;6.614;2023-11-21T07:39:51;8.90;99.90
52643;DHT22;38531;53.296;6.614;2023-11-21T07:42:23;8.70;99.90
52643;DHT22;38531;53.296;6.614;2023-11-21T07:44:48;8.70;99.90
52643;DHT22;38531;53.296;6.614;2023-11-21T07:47:15;8.70;99.90
52643;DHT22;38531;53.296;6.614;2023-11-21T07:49:41;8.50;99.90
52643;DHT22;38531;53.296;6.614;2023-11-21T07:52:09;9.20;99.90
52643;DHT22;38531;53.296;6.614;2023-11-21T07:54:35;9.00;99.90
52643;DHT22;38531;53.296;6.614;2023-11-21T07:57:01;9.00;99.90
52643;DHT22;38531;53.296;6.614;2023-11-21T07:59:27;8.50;99.90
52643;DHT22;38531;53.296;6.614;2023-11-21T08:01:52;8.50;99.90
52643;DHT22;38531;53.296;6.614;2023-11-21T08:04:18;8.70;99.90
52643;DHT22;38531;53.296;6.614;2023-11-21T08:06:43;9.10;99.90
52643;DHT22;38531;53.296;6.614;2023-11-21T08:09:09;8.90;99.90
52643;DHT22;38531;53.296;6.614;2023-11-21T08:11:37;8.70;99.90
52643;DHT22;38531;53.296;6.614;2023-11-21T08:14:04;8.80;99.90
52643;DHT22;38531;53.296;6.614;2023-11-21T08:16:30;9.20;99.90
52643;DHT22;38531;53.296;6.614;2023-11-21T08:18:56;8.50;99.90
52643;DHT22;38531;53.296;6.614;2023-11-21T08:21:22;8.90;99.90
52643;DHT22;38531;53.296;6.614;2023-11-21T08:23:50;8.40;99.90
52643;DHT22;38531;53.296;6.614;2023-11-21T08:26:19;8.60;99.90
52643;DHT22;38531;53.296;6.614;2023-11-21T08:28:45;8.40;99.90
52643;DHT22;38531;53.296;6.614;2023-11-21T08:31:10;8.70;99.90
52643;DHT22;38531;53.296;6.614;2023-11-21T08:33:36;8.90;99.90
52643;DHT22;38531;53.296;6.614;2023-11-21T08:36:06;9.10;99.90
52643;DHT22;38531;53.296;6.614;2023-11-21T08:38:31;8.40;99.90
52643;DHT22;38531;53.296;6.614;2023-11-21T08:40:57;8.60;99.90
52643;DHT22;38531;53.296;6.614;2023-11-21T08:43:23;8.30;99.90
52643;DHT22;38531;53.296;6.614;2023-11-21T08:45:49;8.70;99.90
52643;DHT22;38531;53.296;6.614;2023-11-21T08:48:15;8.60;99.90
52643;DHT22;38531;53.296;6.614;2023-11-21T08:50:41;8.90;99.90
52643;DHT22;38531;53.296;6.614;2023-11-21T08:53:06;8.80;99.90
52643;DHT22;38531;53.296;6.614;2023-11-21T08:55:32;8.20;99.90
52643;DHT22;38531;53.296;6.614;2023-11-21T08:58:02;8.20;99.90
52643;DHT22;38531;53.296;6.614;2023-11-21T09:00:31;9.00;99.90
52643;DHT22;38531;53.296;6.614;2023-11-21T09:02:57;8.60;99.90
52643;DHT22;38531;53.296;6.614;2023-11-21T09:05:23;8.20;99.90
52643;DHT22;38531;53.296;6.614;2023-11-21T09:07:48;8.20;99.90
52643;DHT22;38531;53.296;6.614;2023-11-21T09:10:14;8.20;99.90
52643;DHT22;38531;53.296;6.614;2023-11-21T09:12:40;8.20;99.90
52643;DHT22;38531;53.296;6.614;2023-11-21T09:15:06;8.20;99.90
52643;DHT22;38531;53.296;6.614;2023-11-21T09:17:32;8.20;99.90
52643;DHT22;38531;53.296;6.614;2023-11-21T09:19:58;7.40;99.90
52643;DHT22;38531;53.296;6.614;2023-11-21T09:22:23;8.80;99.90
52643;DHT22;38531;53.296;6.614;2023-11-21T09:24:50;8.80;99.90
52643;DHT22;38531;53.296;6.614;2023-11-21T09:27:16;8.20;99.90
52643;DHT22;38531;53.296;6.614;2023-11-21T09:29:42;8.20;99.90
52643;DHT22;38531;53.296;6.614;2023-11-21T09:32:08;8.30;99.90
52643;DHT22;38531;53.296;6.614;2023-11-21T09:34:39;8.20;99.90
52643;DHT22;38531;53.296;6.614;2023-11-21T09:37:04;8.90;99.90
52643;DHT22;38531;53.296;6.614;2023-11-21T09:39:32;8.70;99.90
52643;DHT22;38531;53.296;6.614;2023-11-21T09:41:59;8.70;99.90
52643;DHT22;38531;53.296;6.614;2023-11-21T09:44:32;8.30;99.90
52643;DHT22;38531;53.296;6.614;2023-11-21T09:46:59;8.40;99.90
52643;DHT22;38531;53.296;6.614;2023-11-21T09:49:25;8.80;99.90
52643;DHT22;38531;53.296;6.614;2023-11-21T09:51:52;8.60;99.90
52643;DHT22;38531;53.296;6.614;2023-11-21T09:54:19;8.40;99.90
52643;DHT22;38531;53.296;6.614;2023-11-21T09:56:46;9.10;99.90
52643;DHT22;38531;53.296;6.614;2023-11-21T09:59:13;8.60;99.90
52643;DHT22;38531;53.296;6.614;2023-11-21T10:01:38;9.00;99.90
52643;DHT22;38531;53.296;6.614;2023-11-21T10:04:06;8.70;99.90
52643;DHT22;38531;53.296;6.614;2023-11-21T10:06:40;9.00;99.90
52643;DHT22;38531;53.296;6.614;2023-11-21T10:09:12;8.30;99.90
52643;DHT22;38531;53.296;6.614;2023-11-21T10:11:42;8.50;99.90
52643;DHT22;38531;53.296;6.614;2023-11-21T10:14:11;8.20;99.90
52643;DHT22;38531;53.296;6.614;2023-11-21T10:16:39;8.20;99.90
52643;DHT22;38531;53.296;6.614;2023-11-21T10:19:06;8.20;99.90
52643;DHT22;38531;53.296;6.614;2023-11-21T10:21:32;8.50;99.90
52643;DHT22;38531;53.296;6.614;2023-11-21T10:23:58;8.90;99.90
52643;DHT22;38531;53.296;6.614;2023-11-21T10:26:24;8.40;99.90
52643;DHT22;38531;53.296;6.614;2023-11-21T10:28:55;9.00;99.90
52643;DHT22;38531;53.296;6.614;2023-11-21T10:31:21;8.20;99.90
52643;DHT22;38531;53.296;6.614;2023-11-21T10:33:50;8.20;99.90
52643;DHT22;38531;53.296;6.614;2023-11-21T10:36:28;8.30;99.90
52643;DHT22;38531;53.296;6.614;2023-11-21T10:38:54;8.40;99.90
52643;DHT22;38531;53.296;6.614;2023-11-21T10:41:20;8.40;99.90
52643;DHT22;38531;53.296;6.614;2023-11-21T10:43:45;8.40;99.90
52643;DHT22;38531;53.296;6.614;2023-11-21T10:46:11;8.30;99.90
52643;DHT22;38531;53.296;6.614;2023-11-21T10:48:37;8.30;99.90
52643;DHT22;38531;53.296;6.614;2023-11-21T10:51:06;8.80;99.90
52643;DHT22;38531;53.296;6.614;2023-11-21T10:53:32;8.30;99.90
52643;DHT22;38531;53.296;6.614;2023-11-21T10:56:02;8.90;99.90
52643;DHT22;38531;53.296;6.614;2023-11-21T10:58:29;8.50;99.90
52643;DHT22;38531;53.296;6.614;2023-11-21T11:00:55;8.60;99.90
52643;DHT22;38531;53.296;6.614;2023-11-21T11:03:20;8.90;99.90
52643;DHT22;38531;53.296;6.614;2023-11-21T11:05:48;8.50;99.90
52643;DHT22;38531;53.296;6.614;2023-11-21T11:08:16;8.90;99.90
52643;DHT22;38531;53.296;6.614;2023-11-21T11:10:49;8.50;99.90
52643;DHT22;38531;53.296;6.614;2023-11-21T11:13:15;8.50;99.90
52643;DHT22;38531;53.296;6.614;2023-11-21T11:15:41;8.90;99.90
52643;DHT22;38531;53.296;6.614;2023-11-21T11:18:08;8.60;99.90
52643;DHT22;38531;53.296;6.614;2023-11-21T11:20:34;8.60;99.90
52643;DHT22;38531;53.296;6.614;2023-11-21T11:28:35;8.60;99.90
52643;DHT22;38531;53.296;6.614;2023-11-21T11:33:47;8.60;99.90
52643;DHT22;38531;53.296;6.614;2023-11-21T11:38:48;8.50;99.90
52643;DHT22;38531;53.296;6.614;2023-11-21T11:41:27;8.90;99.90
52643;DHT22;38531;53.296;6.614;2023-11-21T11:43:55;8.70;99.90
52643;DHT22;38531;53.296;6.614;2023-11-21T11:46:20;8.70;99.90
52643;DHT22;38531;53.296;6.614;2023-11-21T11:48:47;8.80;99.90
52643;DHT22;38531;53.296;6.614;2023-11-21T11:51:14;9.40;99.90
52643;DHT22;38531;53.296;6.614;2023-11-21T11:53:40;9.40;99.90
52643;DHT22;38531;53.296;6.614;2023-11-21T11:56:26;9.20;99.90
52643;DHT22;38531;53.296;6.614;2023-11-21T11:58:53;8.80;99.90
52643;DHT22;38531;53.296;6.614;2023-11-21T12:01:19;9.30;99.90
52643;DHT22;38531;53.296;6.614;2023-11-21T12:03:44;9.40;99.90
52643;DHT22;38531;53.296;6.614;2023-11-21T12:06:10;9.10;99.90
52643;DHT22;38531;53.296;6.614;2023-11-21T12:08:37;8.90;99.90
52643;DHT22;38531;53.296;6.614;2023-11-21T12:11:03;9.00;99.90
52643;DHT22;38531;53.296;6.614;2023-11-21T12:13:28;8.80;99.90
52643;DHT22;38531;53.296;6.614;2023-11-21T12:15:54;9.30;99.90
52643;DHT22;38531;53.296;6.614;2023-11-21T12:18:20;9.40;99.90
52643;DHT22;38531;53.296;6.614;2023-11-21T12:20:46;9.40;99.90
52643;DHT22;38531;53.296;6.614;2023-11-21T12:23:14;9.40;99.90
52643;DHT22;38531;53.296;6.614;2023-11-21T12:25:41;9.50;99.90
52643;DHT22;38531;53.296;6.614;2023-11-21T12:28:07;9.30;99.90
52643;DHT22;38531;53.296;6.614;2023-11-21T12:30:36;9.30;99.90
52643;DHT22;38531;53.296;6.614;2023-11-21T12:33:03;9.30;99.90
52643;DHT22;38531;53.296;6.614;2023-11-21T12:35:33;9.30;99.90
52643;DHT22;38531;53.296;6.614;2023-11-21T12:38:03;9.20;99.90
52643;DHT22;38531;53.296;6.614;2023-11-21T12:40:29;9.90;99.90
52643;DHT22;38531;53.296;6.614;2023-11-21T12:42:55;9.10;99.90
52643;DHT22;38531;53.296;6.614;2023-11-21T12:45:25;9.10;99.90
52643;DHT22;38531;53.296;6.614;2023-11-21T12:47:51;9.10;99.90
52643;DHT22;38531;53.296;6.614;2023-11-21T13:00:34;9.10;99.90
52643;DHT22;38531;53.296;6.614;2023-11-21T13:03:03;9.10;99.90
52643;DHT22;38531;53.296;6.614;2023-11-21T13:05:30;9.10;99.90
52643;DHT22;38531;53.296;6.614;2023-11-21T13:07:56;9.60;99.90
52643;DHT22;38531;53.296;6.614;2023-11-21T13:10:26;9.10;99.90
52643;DHT22;38531;53.296;6.614;2023-11-21T13:12:59;9.00;99.90
52643;DHT22;38531;53.296;6.614;2023-11-21T13:15:26;9.00;99.90
52643;DHT22;38531;53.296;6.614;2023-11-21T13:17:52;8.90;99.90
52643;DHT22;38531;53.296;6.614;2023-11-21T13:20:19;9.10;99.90
52643;DHT22;38531;53.296;6.614;2023-11-21T13:25:11;9.30;99.90
52643;DHT22;38531;53.296;6.614;2023-11-21T13:27:37;8.90;99.90
52643;DHT22;38531;53.296;6.614;2023-11-21T13:30:03;9.00;99.90
52643;DHT22;38531;53.296;6.614;2023-11-21T13:32:29;8.80;99.90
52643;DHT22;38531;53.296;6.614;2023-11-21T13:34:54;8.70;99.90
52643;DHT22;38531;53.296;6.614;2023-11-21T13:37:20;9.30;99.90
52643;DHT22;38531;53.296;6.614;2023-11-21T13:39:46;9.20;99.90
52643;DHT22;38531;53.296;6.614;2023-11-21T13:42:15;9.00;99.90
52643;DHT22;38531;53.296;6.614;2023-11-21T13:44:42;8.90;99.90
52643;DHT22;38531;53.296;6.614;2023-11-21T13:47:12;8.70;99.90
52643;DHT22;38531;53.296;6.614;2023-11-21T13:49:37;8.60;99.90
52643;DHT22;38531;53.296;6.614;2023-11-21T13:52:06;8.60;99.90
52643;DHT22;38531;53.296;6.614;2023-11-21T13:54:32;8.70;99.90
52643;DHT22;38531;53.296;6.614;2023-11-21T13:56:58;8.80;99.90
52643;DHT22;38531;53.296;6.614;2023-11-21T13:59:25;8.90;99.90
52643;DHT22;38531;53.296;6.614;2023-11-21T14:01:53;9.30;99.90
52643;DHT22;38531;53.296;6.614;2023-11-21T14:04:25;8.60;99.90
52643;DHT22;38531;53.296;6.614;2023-11-21T14:07:18;8.60;99.90
52643;DHT22;38531;53.296;6.614;2023-11-21T14:10:02;8.60;99.90
52643;DHT22;38531;53.296;6.614;2023-11-21T14:12:29;8.50;99.90
52643;DHT22;38531;53.296;6.614;2023-11-21T14:14:59;8.70;99.90
52643;DHT22;38531;53.296;6.614;2023-11-21T14:17:25;9.20;99.90
52643;DHT22;38531;53.296;6.614;2023-11-21T14:19:50;9.00;99.90
52643;DHT22;38531;53.296;6.614;2023-11-21T14:22:16;8.60;99.90
52643;DHT22;38531;53.296;6.614;2023-11-21T14:24:42;8.80;99.90
52643;DHT22;38531;53.296;6.614;2023-11-21T14:27:12;8.30;99.90
52643;DHT22;38531;53.296;6.614;2023-11-21T14:29:37;8.40;99.90
52643;DHT22;38531;53.296;6.614;2023-11-21T14:32:06;8.50;99.90
52643;DHT22;38531;53.296;6.614;2023-11-21T14:34:33;8.40;99.90
52643;DHT22;38531;53.296;6.614;2023-11-21T14:36:58;8.40;99.90
52643;DHT22;38531;53.296;6.614;2023-11-21T14:39:24;8.30;99.90
52643;DHT22;38531;53.296;6.614;2023-11-21T14:41:52;8.50;99.90
52643;DHT22;38531;53.296;6.614;2023-11-21T14:44:19;9.00;99.90
52643;DHT22;38531;53.296;6.614;2023-11-21T14:46:45;8.90;99.90
52643;DHT22;38531;53.296;6.614;2023-11-21T14:49:14;8.20;99.90
52643;DHT22;38531;53.296;6.614;2023-11-21T14:51:48;8.60;99.90
52643;DHT22;38531;53.296;6.614;2023-11-21T14:54:26;8.80;99.90
52643;DHT22;38531;53.296;6.614;2023-11-21T14:57:06;8.20;99.90
52643;DHT22;38531;53.296;6.614;2023-11-21T14:59:46;7.80;99.90
52643;DHT22;38531;53.296;6.614;2023-11-21T15:02:15;8.20;99.90
52643;DHT22;38531;53.296;6.614;2023-11-21T15:04:42;8.10;99.90
52643;DHT22;38531;53.296;6.614;2023-11-21T15:07:07;8.90;99.90
52643;DHT22;38531;53.296;6.614;2023-11-21T15:09:33;8.30;99.90
52643;DHT22;38531;53.296;6.614;2023-11-21T15:12:06;8.70;99.90
52643;DHT22;38531;53.296;6.614;2023-11-21T15:14:42;8.10;99.90
52643;DHT22;38531;53.296;6.614;2023-11-21T15:17:08;8.90;99.90
52643;DHT22;38531;53.296;6.614;2023-11-21T15:19:34;8.00;99.90
52643;DHT22;38531;53.296;6.614;2023-11-21T15:22:01;8.30;99.90
52643;DHT22;38531;53.296;6.614;2023-11-21T15:24:26;8.10;99.90
52643;DHT22;38531;53.296;6.614;2023-11-21T15:26:52;8.20;99.90
52643;DHT22;38531;53.296;6.614;2023-11-21T15:29:18;8.00;99.90
52643;DHT22;38531;53.296;6.614;2023-11-21T15:31:46;7.40;99.90
52643;DHT22;38531;53.296;6.614;2023-11-21T15:34:14;8.20;99.90
52643;DHT22;38531;53.296;6.614;2023-11-21T15:36:40;7.40;99.90
52643;DHT22;38531;53.296;6.614;2023-11-21T15:39:05;7.80;99.90
52643;DHT22;38531;53.296;6.614;2023-11-21T15:41:32;8.40;99.90
52643;DHT22;38531;53.296;6.614;2023-11-21T15:43:58;7.60;99.90
52643;DHT22;38531;53.296;6.614;2023-11-21T15:46:23;7.80;99.90
52643;DHT22;38531;53.296;6.614;2023-11-21T15:48:49;7.50;99.90
52643;DHT22;38531;53.296;6.614;2023-11-21T15:51:18;7.90;99.90
52643;DHT22;38531;53.296;6.614;2023-11-21T15:53:44;7.40;99.90
52643;DHT22;38531;53.296;6.614;2023-11-21T15:56:09;7.30;99.90
52643;DHT22;38531;53.296;6.614;2023-11-21T15:58:40;7.20;99.90
52643;DHT22;38531;53.296;6.614;2023-11-21T16:01:10;7.20;99.90
52643;DHT22;38531;53.296;6.614;2023-11-21T16:03:38;7.60;99.90
52643;DHT22;38531;53.296;6.614;2023-11-21T16:06:04;7.00;99.90